createdAt,value
2023-01-07T00:01:01.640Z,7.65
2023-01-07T00:03:29.328Z,6.47
2023-01-07T00:06:03.303Z,7.38
2023-01-07T00:08:34.725Z,7.63
2023-01-07T00:11:02.860Z,6.53
2023-01-07T00:13:30.504Z,7.82
2023-01-07T00:16:01.199Z,7.32
2023-01-07T00:18:28.409Z,7.05
2023-01-07T00:20:59.191Z,7.25
2023-01-07T00:23:26.917Z,7.20
2023-01-07T00:26:00.178Z,8.73
2023-01-07T00:28:27.594Z,6.88
2023-01-07T00:30:59.863Z,8.02
2023-01-07T00:33:28.341Z,7.15
2023-01-07T00:36:08.835Z,8.05
2023-01-07T00:38:36.965Z,6.72
2023-01-07T00:41:04.469Z,6.57
2023-01-07T00:43:31.694Z,6.85
2023-01-07T00:45:59.462Z,7.22
2023-01-07T00:48:26.638Z,6.55
2023-01-07T00:50:53.993Z,6.63
2023-01-07T00:53:21.635Z,6.85
2023-01-07T00:55:49.228Z,6.88
2023-01-07T00:58:17.829Z,6.65
2023-01-07T01:00:44.981Z,6.40
2023-01-07T01:03:12.695Z,6.20
2023-01-07T01:05:40.326Z,6.57
2023-01-07T01:08:07.884Z,5.97
2023-01-07T01:10:35.119Z,6.38
2023-01-07T01:13:02.430Z,5.68
2023-01-07T01:15:29.581Z,6.07
2023-01-07T01:17:56.734Z,5.97
2023-01-07T01:20:23.915Z,6.03
2023-01-07T01:22:51.054Z,6.20
2023-01-07T01:25:18.321Z,6.40
2023-01-07T01:27:45.598Z,6.00
2023-01-07T01:30:12.972Z,6.28
2023-01-07T01:32:40.098Z,6.00
2023-01-07T01:35:07.660Z,5.82
2023-01-07T01:37:34.806Z,5.90
2023-01-07T01:40:05.196Z,6.47
2023-01-07T01:42:32.348Z,6.05
2023-01-07T01:45:00.906Z,6.10
2023-01-07T01:47:36.830Z,5.60
2023-01-07T01:52:35.413Z,5.70
2023-01-07T01:55:03.857Z,5.68
2023-01-07T01:57:33.223Z,6.05
2023-01-07T02:00:00.504Z,5.95
2023-01-07T02:02:30.462Z,5.20
2023-01-07T02:04:58.362Z,5.80
2023-01-07T02:07:25.726Z,5.63
2023-01-07T02:09:58.162Z,5.40
2023-01-07T02:12:43.938Z,5.78
2023-01-07T02:15:27.635Z,5.93
2023-01-07T02:18:21.343Z,6.18
2023-01-07T02:20:54.258Z,5.65
2023-01-07T02:23:21.358Z,5.57
2023-01-07T02:25:51.613Z,5.28
2023-01-07T02:28:30.084Z,6.32
2023-01-07T02:31:32.861Z,5.55
2023-01-07T02:34:11.751Z,5.22
2023-01-07T02:36:41.763Z,5.40
2023-01-07T02:39:24.347Z,5.90
2023-01-07T02:42:05.084Z,5.18
2023-01-07T02:44:39.193Z,5.53
2023-01-07T02:47:15.266Z,4.97
2023-01-07T02:49:42.434Z,5.25
2023-01-07T02:52:17.762Z,5.60
2023-01-07T02:54:45.326Z,5.30
2023-01-07T02:57:21.499Z,5.70
2023-01-07T02:59:51.476Z,5.35
2023-01-07T03:02:18.572Z,5.82
2023-01-07T03:04:45.700Z,6.18
2023-01-07T03:07:25.263Z,5.38
2023-01-07T03:10:13.384Z,5.60
2023-01-07T03:12:48.033Z,5.20
2023-01-07T03:15:29.030Z,5.57
2023-01-07T03:18:00.595Z,5.00
2023-01-07T03:20:28.392Z,5.20
2023-01-07T03:22:57.213Z,5.50
2023-01-07T03:25:24.994Z,5.03
2023-01-07T03:27:52.813Z,4.75
2023-01-07T03:30:20.420Z,5.60
2023-01-07T03:32:55.635Z,5.60
2023-01-07T03:35:23.425Z,5.80
2023-01-07T03:37:51.165Z,5.13
2023-01-07T03:40:21.396Z,5.40
2023-01-07T03:42:49.153Z,5.40
2023-01-07T03:45:20.596Z,5.47
2023-01-07T03:47:48.742Z,5.13
2023-01-07T03:50:16.378Z,5.07
2023-01-07T03:52:43.733Z,4.85
2023-01-07T03:55:11.386Z,4.82
2023-01-07T03:57:38.988Z,5.03
2023-01-07T04:00:07.414Z,5.60
2023-01-07T04:02:34.573Z,5.22
2023-01-07T04:05:01.732Z,5.20
2023-01-07T04:07:29.039Z,4.93
2023-01-07T04:09:56.252Z,5.47
2023-01-07T04:12:23.396Z,4.97
2023-01-07T04:14:50.538Z,5.00
2023-01-07T04:17:17.673Z,5.18
2023-01-07T04:19:45.337Z,5.93
2023-01-07T04:22:12.624Z,5.32
2023-01-07T04:24:39.886Z,4.82
2023-01-07T04:27:07.122Z,4.82
2023-01-07T04:29:34.268Z,5.20
2023-01-07T04:32:01.565Z,4.50
2023-01-07T04:34:28.861Z,5.10
2023-01-07T04:36:55.962Z,4.80
2023-01-07T04:39:23.087Z,4.80
2023-01-07T04:41:50.252Z,4.88
2023-01-07T04:44:17.836Z,5.30
2023-01-07T04:46:45.345Z,5.35
2023-01-07T04:49:12.799Z,5.70
2023-01-07T04:51:39.954Z,5.30
2023-01-07T04:54:07.129Z,4.78
2023-01-07T04:56:34.273Z,4.32
2023-01-07T04:59:01.392Z,4.63
2023-01-07T05:01:31.037Z,5.20
2023-01-07T05:03:58.371Z,5.15
2023-01-07T05:06:25.789Z,4.93
2023-01-07T05:08:53.107Z,5.05
2023-01-07T05:11:21.823Z,5.30
2023-01-07T05:13:52.335Z,5.07
2023-01-07T05:16:19.582Z,5.13
2023-01-07T05:18:46.788Z,5.40
2023-01-07T05:21:14.270Z,5.70
2023-01-07T05:23:41.511Z,5.15
2023-01-07T05:26:08.677Z,5.25
2023-01-07T05:28:36.005Z,5.53
2023-01-07T05:31:03.438Z,5.05
2023-01-07T05:33:30.634Z,4.97
2023-01-07T05:35:57.833Z,5.07
2023-01-07T05:38:25.057Z,5.30
2023-01-07T05:40:52.232Z,5.45
2023-01-07T05:43:19.417Z,5.10
2023-01-07T05:45:46.950Z,5.03
2023-01-07T05:48:14.530Z,5.35
2023-01-07T05:50:42.146Z,5.30
2023-01-07T05:53:09.288Z,5.75
2023-01-07T05:55:38.690Z,5.30
2023-01-07T05:58:06.667Z,5.22
2023-01-07T06:00:34.214Z,5.25
2023-01-07T06:03:01.528Z,5.88
2023-01-07T06:05:28.915Z,5.47
2023-01-07T06:07:56.121Z,5.30
2023-01-07T06:10:23.294Z,5.82
2023-01-07T06:12:51.331Z,6.07
2023-01-07T06:15:18.753Z,5.60
2023-01-07T06:17:45.928Z,5.82
2023-01-07T06:20:15.147Z,5.30
2023-01-07T06:22:43.209Z,6.10
2023-01-07T06:25:11.408Z,5.63
2023-01-07T06:27:40.673Z,5.60
2023-01-07T06:30:08.939Z,5.60
2023-01-07T06:32:39.951Z,5.93
2023-01-07T06:35:07.957Z,5.80
2023-01-07T06:37:35.310Z,6.18
2023-01-07T06:40:02.696Z,6.25
2023-01-07T06:42:30.060Z,6.10
2023-01-07T06:44:57.334Z,5.80
2023-01-07T06:47:25.373Z,6.00
2023-01-07T06:49:52.924Z,5.63
2023-01-07T06:52:22.507Z,6.15
2023-01-07T06:54:49.691Z,6.38
2023-01-07T06:57:16.918Z,5.63
2023-01-07T06:59:44.056Z,5.68
2023-01-07T07:02:18.150Z,6.20
2023-01-07T07:04:45.456Z,5.47
2023-01-07T07:07:12.895Z,5.40
2023-01-07T07:09:40.316Z,5.95
2023-01-07T07:12:07.594Z,6.05
2023-01-07T07:14:34.817Z,6.18
2023-01-07T07:17:02.238Z,6.72
2023-01-07T07:19:29.391Z,6.10
2023-01-07T07:21:56.572Z,6.38
2023-01-07T07:24:23.763Z,6.03
2023-01-07T07:26:50.940Z,6.20
2023-01-07T07:29:18.119Z,6.55
2023-01-07T07:31:45.605Z,6.20
2023-01-07T07:34:12.874Z,6.13
2023-01-07T07:36:40.129Z,6.05
2023-01-07T07:39:07.662Z,7.63
2023-01-07T07:41:34.844Z,7.63
2023-01-07T07:44:02.027Z,9.30
2023-01-07T07:46:29.164Z,9.88
2023-01-07T07:48:56.331Z,10.50
2023-01-07T07:51:23.633Z,9.77
2023-01-07T07:53:50.939Z,10.23
2023-01-07T07:56:18.082Z,9.95
2023-01-07T07:58:45.256Z,10.30
2023-01-07T08:01:12.538Z,10.95
2023-01-07T08:03:39.713Z,9.88
2023-01-07T08:06:07.303Z,9.73
2023-01-07T08:08:34.572Z,11.18
2023-01-07T08:11:03.745Z,12.23
2023-01-07T08:13:31.468Z,12.75
2023-01-07T08:15:58.733Z,11.20
2023-01-07T08:18:28.075Z,12.40
2023-01-07T08:20:55.844Z,11.55
2023-01-07T08:23:23.559Z,11.60
2023-01-07T08:25:50.829Z,11.60
2023-01-07T08:28:18.022Z,11.55
2023-01-07T08:30:45.216Z,12.15
2023-01-07T08:33:12.366Z,11.30
2023-01-07T08:35:39.532Z,11.98
2023-01-07T08:38:07.973Z,11.35
2023-01-07T08:40:36.068Z,10.93
2023-01-07T08:43:04.708Z,11.73
2023-01-07T08:45:32.497Z,11.82
2023-01-07T08:48:00.583Z,13.23
2023-01-07T08:50:29.107Z,13.18
2023-01-07T08:52:56.265Z,12.48
2023-01-07T08:55:23.465Z,12.65
2023-01-07T08:57:50.919Z,12.57
2023-01-07T09:00:19.110Z,12.52
2023-01-07T09:02:46.425Z,12.93
2023-01-07T09:05:13.673Z,12.88
2023-01-07T09:07:42.489Z,13.60
2023-01-07T09:10:10.332Z,12.45
2023-01-07T09:12:37.565Z,12.75
2023-01-07T09:15:05.026Z,13.07
2023-01-07T09:17:32.252Z,13.10
2023-01-07T09:20:03.452Z,12.38
2023-01-07T09:22:31.823Z,12.73
2023-01-07T09:24:59.131Z,12.48
2023-01-07T09:27:29.829Z,12.10
2023-01-07T09:29:58.691Z,12.93
2023-01-07T09:32:26.402Z,12.32
2023-01-07T09:34:53.623Z,11.32
2023-01-07T09:37:20.829Z,12.10
2023-01-07T09:39:48.045Z,11.77
2023-01-07T09:42:35.552Z,11.90
2023-01-07T09:45:20.406Z,11.48
2023-01-07T09:47:49.455Z,11.77
2023-01-07T09:50:16.639Z,12.07
2023-01-07T09:52:48.164Z,11.95
2023-01-07T09:55:19.231Z,11.90
2023-01-07T09:57:46.411Z,11.40
2023-01-07T10:00:18.551Z,11.88
2023-01-07T10:03:04.800Z,12.02
2023-01-07T10:08:28.697Z,11.63
2023-01-07T10:11:03.703Z,11.75
2023-01-07T10:13:49.683Z,10.85
2023-01-07T10:16:34.071Z,11.93
2023-01-07T10:19:01.265Z,11.55
2023-01-07T10:21:37.099Z,11.40
2023-01-07T10:24:05.815Z,10.68
2023-01-07T10:26:36.605Z,11.20
2023-01-07T10:29:07.906Z,10.77
2023-01-07T10:31:35.725Z,10.98
2023-01-07T10:34:03.328Z,11.10
2023-01-07T10:36:40.560Z,10.45
2023-01-07T10:39:25.248Z,10.50
2023-01-07T10:41:55.465Z,11.50
2023-01-07T10:44:41.566Z,11.25
2023-01-07T10:47:08.660Z,10.65
2023-01-07T10:49:35.745Z,10.70
2023-01-07T10:52:02.909Z,10.82
2023-01-07T10:54:49.045Z,11.48
2023-01-07T10:57:18.872Z,10.32
2023-01-07T10:59:49.493Z,10.70
2023-01-07T11:02:21.684Z,10.95
2023-01-07T11:04:48.960Z,11.07
2023-01-07T11:07:28.193Z,10.20
2023-01-07T11:09:55.875Z,10.60
2023-01-07T11:12:27.431Z,10.75
2023-01-07T11:14:57.000Z,9.98
2023-01-07T11:17:42.793Z,10.30
2023-01-07T11:20:10.498Z,9.55
2023-01-07T11:22:38.637Z,10.73
2023-01-07T11:25:24.509Z,9.75
2023-01-07T11:27:51.719Z,9.63
2023-01-07T11:30:21.999Z,9.93
2023-01-07T11:32:57.662Z,10.18
2023-01-07T11:35:25.920Z,10.30
2023-01-07T11:37:53.231Z,10.13
2023-01-07T11:40:22.678Z,10.20
2023-01-07T11:42:49.870Z,10.90
2023-01-07T11:45:24.005Z,10.23
2023-01-07T11:48:13.897Z,10.63
2023-01-07T11:50:42.526Z,9.02
2023-01-07T11:53:15.836Z,11.27
2023-01-07T11:55:57.107Z,11.32
2023-01-07T11:58:28.190Z,10.38
2023-01-07T12:01:12.956Z,11.57
2023-01-07T12:03:40.830Z,11.77
2023-01-07T12:06:27.105Z,9.48
2023-01-07T12:11:21.797Z,10.13
2023-01-07T12:13:53.117Z,10.98
2023-01-07T12:16:27.088Z,10.13
2023-01-07T12:19:23.929Z,11.38
2023-01-07T12:22:14.342Z,10.90
2023-01-07T12:24:47.768Z,21.90
2023-01-07T12:27:41.441Z,27.10
2023-01-07T12:30:30.971Z,29.98
2023-01-07T12:33:13.430Z,32.67
2023-01-07T12:35:43.028Z,35.38
2023-01-07T12:38:14.882Z,39.75
2023-01-07T12:41:00.918Z,156.70
2023-01-07T12:43:34.226Z,201.27
2023-01-07T12:46:03.031Z,136.57
2023-01-07T12:48:30.301Z,121.25
2023-01-07T12:50:58.496Z,118.90
2023-01-07T12:53:25.681Z,117.43
2023-01-07T12:55:55.533Z,111.88
2023-01-07T12:58:40.637Z,110.35
2023-01-07T13:01:08.005Z,100.13
2023-01-07T13:03:44.570Z,97.82
2023-01-07T13:06:26.916Z,90.38
2023-01-07T13:09:04.630Z,85.72
2023-01-07T13:11:53.379Z,70.55
2023-01-07T13:14:40.803Z,61.50
2023-01-07T13:17:27.339Z,56.05
2023-01-07T13:19:54.682Z,47.10
2023-01-07T13:22:34.226Z,45.03
2023-01-07T13:25:04.219Z,42.15
2023-01-07T13:27:50.214Z,45.10
2023-01-07T13:30:36.403Z,36.40
2023-01-07T13:35:36.863Z,30.98
2023-01-07T13:38:22.791Z,29.98
2023-01-07T13:40:59.115Z,32.17
2023-01-07T13:43:41.730Z,29.60
2023-01-07T13:46:18.430Z,30.98
2023-01-07T13:48:50.389Z,30.25
2023-01-07T13:51:25.291Z,28.25
2023-01-07T13:53:52.494Z,29.10
2023-01-07T13:56:19.645Z,27.55
2023-01-07T13:58:46.910Z,28.08
2023-01-07T14:01:14.200Z,27.52
2023-01-07T14:03:41.983Z,29.42
2023-01-07T14:06:21.681Z,26.52
2023-01-07T14:08:53.313Z,26.70
2023-01-07T14:11:21.767Z,26.73
2023-01-07T14:13:54.790Z,25.73
2023-01-07T14:16:21.978Z,25.92
2023-01-07T14:19:02.870Z,25.27
2023-01-07T14:21:32.898Z,26.90
2023-01-07T14:24:05.811Z,24.70
2023-01-07T14:26:49.166Z,25.92
2023-01-07T14:29:26.781Z,24.10
2023-01-07T14:32:12.899Z,22.30
2023-01-07T14:34:40.418Z,25.08
2023-01-07T14:37:11.564Z,25.30
2023-01-07T14:39:38.748Z,25.50
2023-01-07T14:42:21.140Z,22.55
2023-01-07T14:44:51.643Z,24.55
2023-01-07T14:47:37.706Z,20.95
2023-01-07T14:50:23.799Z,22.38
2023-01-07T14:53:00.055Z,21.75
2023-01-07T14:55:31.171Z,21.70
2023-01-07T14:58:04.956Z,21.55
2023-01-07T15:00:38.709Z,20.25
2023-01-07T15:03:21.471Z,21.55
2023-01-07T15:06:12.432Z,20.50
2023-01-07T15:09:07.265Z,20.42
2023-01-07T15:11:55.822Z,20.05
2023-01-07T15:14:47.509Z,21.05
2023-01-07T15:17:15.879Z,19.92
2023-01-07T15:19:44.044Z,21.00
2023-01-07T15:22:23.577Z,18.80
2023-01-07T15:24:50.718Z,19.48
2023-01-07T15:27:18.636Z,20.10
2023-01-07T15:29:55.153Z,19.25
2023-01-07T15:32:31.523Z,18.10
2023-01-07T15:34:58.948Z,18.27
2023-01-07T15:37:26.142Z,18.58
2023-01-07T15:39:55.720Z,18.38
2023-01-07T15:42:24.346Z,18.98
2023-01-07T15:44:53.358Z,19.63
2023-01-07T15:47:35.881Z,19.45
2023-01-07T15:50:23.011Z,19.73
2023-01-07T15:52:54.757Z,17.73
2023-01-07T15:55:48.094Z,16.58
2023-01-07T15:58:34.235Z,15.98
2023-01-07T16:01:02.374Z,15.05
2023-01-07T16:03:30.673Z,15.13
2023-01-07T16:05:59.666Z,14.45
2023-01-07T16:08:29.432Z,13.18
2023-01-07T16:11:04.325Z,13.95
2023-01-07T16:13:32.234Z,14.57
2023-01-07T16:16:05.603Z,13.60
2023-01-07T16:18:33.428Z,14.85
2023-01-07T16:21:13.648Z,13.57
2023-01-07T16:23:41.306Z,14.10
2023-01-07T16:26:20.408Z,13.88
2023-01-07T16:28:52.429Z,13.35
2023-01-07T16:31:21.345Z,13.45
2023-01-07T16:33:50.549Z,12.77
2023-01-07T16:36:29.480Z,12.23
2023-01-07T16:38:59.075Z,11.55
2023-01-07T16:41:27.423Z,11.63
2023-01-07T16:43:56.860Z,11.18
2023-01-07T16:46:25.828Z,12.38
2023-01-07T16:49:11.591Z,11.88
2023-01-07T16:51:40.887Z,11.88
2023-01-07T16:54:26.275Z,12.25
2023-01-07T16:56:56.161Z,12.47
2023-01-07T16:59:24.708Z,11.55
2023-01-07T17:01:52.040Z,11.80
2023-01-07T17:04:21.962Z,12.13
2023-01-07T17:06:49.234Z,11.82
2023-01-07T17:09:24.486Z,12.02
2023-01-07T17:11:52.858Z,11.60
2023-01-07T17:14:38.192Z,12.27
2023-01-07T17:17:09.018Z,12.57
2023-01-07T17:19:40.706Z,10.95
2023-01-07T17:22:26.688Z,13.25
2023-01-07T17:24:54.204Z,11.60
2023-01-07T17:27:25.511Z,11.80
2023-01-07T17:29:53.164Z,11.30
2023-01-07T17:32:20.433Z,11.55
2023-01-07T17:34:47.650Z,11.65
2023-01-07T17:37:15.757Z,11.10
2023-01-07T17:39:46.304Z,11.30
2023-01-07T17:42:42.515Z,11.13
2023-01-07T17:45:14.583Z,11.35
2023-01-07T17:47:41.798Z,10.88
2023-01-07T17:50:09.174Z,10.73
2023-01-07T17:52:36.922Z,11.70
2023-01-07T17:55:04.333Z,11.13
2023-01-07T17:57:31.576Z,9.90
2023-01-07T17:59:58.797Z,11.00
2023-01-07T18:02:30.166Z,10.82
2023-01-07T18:04:57.509Z,11.43
2023-01-07T18:07:24.749Z,11.35
2023-01-07T18:09:51.959Z,10.63
2023-01-07T18:12:33.131Z,11.48
2023-01-07T18:15:01.387Z,11.65
2023-01-07T18:17:28.951Z,11.25
2023-01-07T18:19:56.259Z,10.88
2023-01-07T18:22:25.195Z,12.27
2023-01-07T18:24:52.572Z,10.18
2023-01-07T18:27:19.747Z,10.55
2023-01-07T18:29:46.892Z,10.98
2023-01-07T18:32:14.055Z,11.27
2023-01-07T18:34:41.248Z,11.40
2023-01-07T18:37:10.509Z,10.60
2023-01-07T18:39:37.686Z,10.38
2023-01-07T18:42:04.932Z,11.68
2023-01-07T18:44:32.095Z,9.52
2023-01-07T18:46:59.395Z,11.15
2023-01-07T18:49:35.228Z,11.13
2023-01-07T18:54:32.231Z,10.80
2023-01-07T18:57:02.008Z,11.02
2023-01-07T18:59:29.157Z,12.88
2023-01-07T19:01:59.488Z,11.77
2023-01-07T19:04:27.471Z,11.32
2023-01-07T19:06:54.662Z,11.50
2023-01-07T19:09:23.103Z,12.00
2023-01-07T19:11:50.319Z,10.95
2023-01-07T19:14:17.470Z,11.82
2023-01-07T19:16:44.868Z,11.38
2023-01-07T19:19:12.046Z,9.77
2023-01-07T19:21:39.704Z,9.98
2023-01-07T19:24:07.016Z,9.85
2023-01-07T19:26:35.156Z,10.40
2023-01-07T19:29:03.397Z,11.05
2023-01-07T19:31:30.791Z,10.38
2023-01-07T19:33:58.014Z,10.55
2023-01-07T19:36:25.243Z,11.02
2023-01-07T19:38:52.370Z,11.35
2023-01-07T19:41:20.366Z,10.27
2023-01-07T19:43:48.118Z,10.07
2023-01-07T19:46:16.243Z,9.93
2023-01-07T19:48:43.575Z,10.32
2023-01-07T19:51:11.342Z,11.15
2023-01-07T19:53:39.089Z,10.35
2023-01-07T19:56:07.653Z,10.98
2023-01-07T19:58:34.919Z,10.85
2023-01-07T20:01:05.768Z,10.15
2023-01-07T20:03:33.713Z,10.43
2023-01-07T20:06:09.303Z,11.18
2023-01-07T20:08:37.379Z,9.75
2023-01-07T20:11:04.662Z,11.63
2023-01-07T20:13:33.738Z,10.68
2023-01-07T20:16:07.967Z,11.13
2023-01-07T20:18:38.943Z,11.27
2023-01-07T20:21:06.229Z,10.77
2023-01-07T20:23:35.660Z,12.27
2023-01-07T20:26:04.646Z,12.20
2023-01-07T20:28:31.809Z,12.57
2023-01-07T20:30:58.973Z,11.30
2023-01-07T20:33:26.126Z,12.20
2023-01-07T20:36:03.414Z,11.88
2023-01-07T20:38:30.600Z,12.20
2023-01-07T20:40:57.968Z,12.45
2023-01-07T20:43:25.080Z,12.25
2023-01-07T20:45:52.254Z,10.25
2023-01-07T20:48:19.583Z,12.60
2023-01-07T20:50:46.703Z,12.23
2023-01-07T20:53:13.897Z,12.98
2023-01-07T20:55:41.029Z,11.95
2023-01-07T20:58:08.269Z,12.63
2023-01-07T21:00:35.650Z,10.98
2023-01-07T21:03:02.879Z,12.43
2023-01-07T21:05:30.152Z,12.00
2023-01-07T21:07:59.292Z,12.73
2023-01-07T21:10:26.839Z,11.60
2023-01-07T21:12:53.960Z,11.63
2023-01-07T21:15:21.137Z,12.10
2023-01-07T21:17:48.426Z,12.52
2023-01-07T21:20:16.022Z,12.85
2023-01-07T21:22:43.184Z,12.48
2023-01-07T21:25:11.352Z,12.98
2023-01-07T21:27:39.145Z,12.60
2023-01-07T21:30:18.064Z,12.63
2023-01-07T21:32:45.236Z,11.68
2023-01-07T21:35:13.014Z,12.23
2023-01-07T21:37:40.593Z,11.73
2023-01-07T21:40:08.080Z,12.10
2023-01-07T21:42:36.403Z,12.02
2023-01-07T21:45:03.738Z,12.02
2023-01-07T21:47:30.910Z,11.93
2023-01-07T21:49:58.112Z,11.85
2023-01-07T21:52:25.312Z,12.07
2023-01-07T21:54:52.565Z,11.35
2023-01-07T21:57:19.997Z,10.73
2023-01-07T21:59:47.222Z,11.00
2023-01-07T22:02:17.724Z,12.18
2023-01-07T22:04:46.125Z,10.27
2023-01-07T22:07:17.417Z,10.85
2023-01-07T22:09:44.982Z,11.68
2023-01-07T22:12:12.639Z,10.80
2023-01-07T22:14:39.774Z,11.32
2023-01-07T22:17:07.493Z,10.45
2023-01-07T22:19:35.071Z,9.95
2023-01-07T22:22:02.216Z,10.25
2023-01-07T22:24:29.430Z,9.73
2023-01-07T22:26:57.356Z,10.45
2023-01-07T22:29:24.615Z,11.85
2023-01-07T22:31:53.635Z,10.18
2023-01-07T22:34:20.892Z,10.70
2023-01-07T22:37:11.416Z,10.95
2023-01-07T22:40:08.131Z,10.88
2023-01-07T22:45:14.903Z,10.15
2023-01-07T22:47:44.009Z,10.68
2023-01-07T22:50:11.626Z,10.38
2023-01-07T22:52:38.805Z,10.30
2023-01-07T22:55:06.182Z,8.82
2023-01-07T22:57:34.181Z,9.40
2023-01-07T23:00:01.405Z,10.65
2023-01-07T23:02:28.780Z,10.07
2023-01-07T23:04:55.949Z,10.23
2023-01-07T23:07:23.410Z,10.18
2023-01-07T23:09:51.639Z,10.20
2023-01-07T23:12:18.877Z,10.63
2023-01-07T23:14:46.035Z,10.57
2023-01-07T23:17:13.221Z,10.00
2023-01-07T23:19:40.393Z,10.55
2023-01-07T23:22:07.692Z,10.52
2023-01-07T23:24:36.753Z,10.95
2023-01-07T23:27:04.011Z,10.88
2023-01-07T23:29:31.187Z,10.65
2023-01-07T23:31:58.403Z,10.00
2023-01-07T23:34:25.586Z,9.90
2023-01-07T23:36:52.756Z,10.18
2023-01-07T23:39:19.985Z,11.73
2023-01-07T23:41:47.171Z,10.45
2023-01-07T23:44:14.340Z,10.60
2023-01-07T23:46:41.490Z,10.02
2023-01-07T23:49:08.789Z,9.88
2023-01-07T23:51:35.931Z,10.00
2023-01-07T23:54:03.100Z,10.27
2023-01-07T23:56:30.726Z,9.77
2023-01-07T23:58:58.222Z,10.07
